MTS Valour — MPVV8 — position and weather

sailwx.info

Track history (hours):
 
Tides and Currents Weather Stations Pressure Air Temp Water Temp Dewpoint Dewpoint Depression Visibility Wind Speed Wind Dir Waves Ship Positions

MTS Valour

Last reported at 2016-May-30 06:33 UTC. Time now 2016-May-30 06:51 UTC.
Position N 50°45' W 000°01'.

Length 24 m; draft 2.4 m.

Type: Tug. MMSI: 235040596.

Date/timePositionNaut miles runAvg speedWind from/ knotsBaromVisibWave heightAir tempDewpointWater temp
2016-May-30 06:33N 50°45' W 000°01'0 0.0
2016-May-30 05:33N 50°45' W 000°01'0 0.0
2016-May-30 04:33N 50°45' W 000°01'0 0.0
2016-May-30 03:30N 50°45' W 000°01'0 0.0
2016-May-30 02:33N 50°45' W 000°00'0 0.0
2016-May-30 01:33N 50°45' W 000°01'0 0.0
2016-May-30 00:33N 50°45' W 000°01'0 0.0
2016-May-29 23:34N 50°45' W 000°01'0 0.0
2016-May-29 22:33N 50°45' W 000°01'0 0.0
2016-May-29 21:33N 50°45' W 000°01'0 0.0
2016-May-29 20:33N 50°45' W 000°01'0 0.0
2016-May-29 19:33N 50°45' W 000°01'0 0.0
2016-May-29 18:33N 50°45' W 000°01'0 0.0
2016-May-29 17:33N 50°45' W 000°01'0 0.0
2016-May-29 16:34N 50°45' W 000°01'0 0.0
2016-May-29 15:32N 50°45' W 000°01'0 0.0
2016-May-29 14:33N 50°45' W 000°01'0 0.0
2016-May-29 13:33N 50°45' W 000°01'1 1.2
2016-May-29 12:33N 50°45' E 000°01'3 3.2
2016-May-29 11:33N 50°43' E 000°05'3 2.6
2016-May-29 10:33N 50°42' E 000°09'3 3.4
2016-May-29 09:33N 50°41' E 000°04'3 2.9
2016-May-29 08:33N 50°39' E 000°00'3 2.7
2016-May-29 07:33N 50°38' W 000°03'3 2.8
2016-May-29 06:30N 50°38' W 000°08'4 3.9
2016-May-29 05:33N 50°42' W 000°05'4 4.4
2016-May-29 04:33N 50°42' E 000°02'4 4.2
2016-May-29 03:29N 50°41' E 000°09'2 1.7
2016-May-29 02:33N 50°40' E 000°08'5 4.5
2016-May-29 01:33N 50°39' E 000°01'5 5.0
2016-May-29 00:31N 50°38' W 000°07'5 4.8
2016-May-28 23:33N 50°37' W 000°14'4 4.4
2016-May-28 22:33N 50°36' W 000°21'4 3.7
2016-May-28 21:33N 50°37' W 000°26'3 3.1
2016-May-28 20:33N 50°37' W 000°31'3 3.3
2016-May-28 19:34N 50°37' W 000°36'3 2.7
2016-May-28 18:33N 50°36' W 000°41'3 2.8
2016-May-28 17:33N 50°36' W 000°45'3 2.6
2016-May-28 16:33N 50°35' W 000°49'83 5.5
2016-May-28 01:22N 50°13' W 002°54'6 7.2
2016-May-28 00:33N 50°14' W 003°03'7 7.4
2016-May-27 23:33N 50°11' W 003°14'7 7.3
2016-May-27 22:33N 50°10' W 003°25'7 7.3
2016-May-27 21:33N 50°09' W 003°37'8 7.3
2016-May-27 20:31N 50°07' W 003°48'19 6.6
2016-May-27 17:33N 50°02' W 004°18'6 6.1
2016-May-27 16:31N 50°01' W 004°27'213 4.5
2016-May-25 17:33N 53°33' W 003°56'8 8.4
2016-May-25 16:33N 53°33' W 003°42'8 8.1
2016-May-25 15:33N 53°33' W 003°29'7 7.1
2016-May-25 14:33N 53°32' W 003°17'6 5.8
2016-May-25 13:33N 53°31' W 003°07'7 6.7
2016-May-25 12:33N 53°26' W 003°01'3 2.6
2016-May-25 11:33N 53°23' W 003°01'0 0.0
2016-May-25 10:33N 53°23' W 003°01'0 0.0
2016-May-25 09:12N 53°23' W 003°01'0 0.0
2016-May-25 08:30N 53°23' W 003°01'0 0.0
2016-May-25 07:33N 53°23' W 003°01'0 0.0
2016-May-25 06:30N 53°23' W 003°01'0 0.0
2016-May-25 05:33N 53°23' W 003°01'0 0.0
2016-May-25 04:33N 53°23' W 003°01'0 0.0
2016-May-25 03:30N 53°23' W 003°01'0 0.0
2016-May-25 02:33N 53°23' W 003°01'0 0.0
2016-May-25 01:33N 53°23' W 003°01'0 0.0
2016-May-25 00:33N 53°23' W 003°01'0 0.0
2016-May-24 23:33N 53°23' W 003°01'0 0.0
2016-May-24 22:33N 53°23' W 003°01'0 0.0
2016-May-24 21:33N 53°23' W 003°01'0 0.0
2016-May-24 20:30N 53°23' W 003°01'0 0.0
2016-May-24 19:25N 53°23' W 003°01'0 0.0
2016-May-24 18:25N 53°23' W 003°01'0 0.0
2016-May-24 17:31N 53°23' W 003°01'0 0.0
2016-May-24 16:31N 53°23' W 003°01'0 0.1
2016-May-24 15:31N 53°23' W 003°01'0 0.0
2016-May-24 14:28N 53°23' W 003°01'0 0.1
2016-May-24 13:31N 53°23' W 003°01'0 0.0
2016-May-24 12:28N 53°23' W 003°01'0 0.0
2016-May-24 11:28N 53°23' W 003°01'0 0.0
2016-May-24 10:31N 53°23' W 003°01'0 0.0
2016-May-24 09:31N 53°23' W 003°01'0 0.0
2016-May-24 08:31N 53°23' W 003°01'0 0.0
2016-May-24 07:31N 53°23' W 003°01'0 0.0
2016-May-24 06:31N 53°23' W 003°01'0 0.0
2016-May-24 05:22N 53°23' W 003°01'0 0.0
2016-May-24 04:31N 53°23' W 003°01'0 0.0
2016-May-24 03:31N 53°23' W 003°01'0 0.0
2016-May-24 02:31N 53°23' W 003°01'0 0.0
2016-May-24 01:31N 53°23' W 003°01'0 0.0
2016-May-24 00:28N 53°23' W 003°01'0 0.0
2016-May-23 23:31N 53°23' W 003°01'0 0.0
2016-May-23 22:31N 53°23' W 003°01'0 0.0
2016-May-23 21:31N 53°23' W 003°01'0 0.0
2016-May-23 20:28N 53°23' W 003°01'0 0.0
2016-May-23 19:31N 53°23' W 003°01'0 0.1
2016-May-23 18:28N 53°23' W 003°01'0 0.1
2016-May-23 17:31N 53°23' W 003°01'0 0.0
2016-May-23 16:31N 53°23' W 003°01'0 0.0
2016-May-23 15:31N 53°23' W 003°01'0 0.0
2016-May-23 14:31N 53°23' W 003°01'0 0.0
2016-May-23 13:19N 53°23' W 003°01'0 0.0
2016-May-23 12:31N 53°23' W 003°01'0 0.0
2016-May-23 11:33N 53°23' W 003°01'0 0.3
2016-May-23 10:33N 53°23' W 003°00'1 1.2
2016-May-23 09:33N 53°22' W 002°59'3 3.0
2016-May-23 08:33N 53°20' W 002°57'3 2.6
2016-May-23 07:33N 53°18' W 002°54'0 0.3
2016-May-23 06:31N 53°17' W 002°54'0 0.0
2016-May-23 05:25N 53°17' W 002°54'0 0.0
2016-May-23 04:22N 53°17' W 002°54'0 0.0
2016-May-23 03:31N 53°17' W 002°54'0 0.0
2016-May-23 02:28N 53°17' W 002°54'0 0.0
2016-May-23 01:25N 53°17' W 002°54'0 0.0
2016-May-23 00:25N 53°17' W 002°54'0 0.0
2016-May-22 23:31N 53°17' W 002°54'0 0.0
2016-May-22 22:31N 53°17' W 002°54'0 0.0
2016-May-22 21:31N 53°17' W 002°54'0 0.0
2016-May-22 20:28N 53°17' W 002°54'0 0.0
2016-May-22 19:31N 53°17' W 002°54'0 0.0
2016-May-22 18:31N 53°17' W 002°54'0 0.0
2016-May-22 17:31N 53°17' W 002°54'0 0.0
2016-May-22 16:31N 53°17' W 002°54'0 0.0
2016-May-22 15:31N 53°17' W 002°54'0 0.0
2016-May-22 14:31N 53°17' W 002°54'0 0.0
2016-May-22 13:31N 53°17' W 002°54'0 0.0
2016-May-22 12:31N 53°17' W 002°54'0 0.0
2016-May-22 11:31N 53°17' W 002°54'0 0.0
2016-May-22 10:28N 53°17' W 002°54'0 0.0
2016-May-22 09:25N 53°17' W 002°54'0 0.0
2016-May-22 08:31N 53°17' W 002°54'0 0.0
2016-May-22 07:31N 53°17' W 002°54'0 0.0
2016-May-22 06:31N 53°17' W 002°54'0 0.0
2016-May-22 05:31N 53°17' W 002°54'0 0.0
2016-May-22 04:31N 53°17' W 002°54'0 0.0
2016-May-22 03:31N 53°17' W 002°54'0 0.0
2016-May-22 02:28N 53°17' W 002°54'0 0.0
2016-May-22 01:31N 53°17' W 002°54'0 0.0
2016-May-22 00:31N 53°17' W 002°54'0 0.0
2016-May-21 23:31N 53°17' W 002°54'0 0.0
2016-May-21 22:31N 53°17' W 002°54'0 0.0
2016-May-21 21:31N 53°17' W 002°54'0 0.0
2016-May-21 20:31N 53°17' W 002°54'0 0.0
2016-May-21 19:31N 53°17' W 002°54'0 0.0
2016-May-21 18:28N 53°17' W 002°54'0 0.0
2016-May-21 17:31N 53°17' W 002°54'0 0.0
2016-May-21 16:31N 53°17' W 002°54'0 0.0
2016-May-21 15:31N 53°17' W 002°54'0 0.0
2016-May-21 14:31N 53°17' W 002°54'0 0.0
2016-May-21 13:28N 53°17' W 002°54'0 0.0
2016-May-21 12:31N 53°17' W 002°54'0 0.0
2016-May-21 11:28N 53°17' W 002°54'0 0.0
2016-May-21 10:31N 53°17' W 002°54'0 0.0
2016-May-21 09:31N 53°17' W 002°54'0 0.0
2016-May-21 08:31N 53°17' W 002°54'0 0.0
2016-May-21 07:31N 53°17' W 002°54'0 0.0
2016-May-21 06:28N 53°17' W 002°54'0 0.0
2016-May-21 05:28N 53°17' W 002°54'0 0.0
2016-May-21 04:31N 53°17' W 002°54'0 0.0
2016-May-21 03:31N 53°17' W 002°54'0 0.0
2016-May-21 02:28N 53°17' W 002°54'0 0.0
2016-May-21 01:28N 53°17' W 002°54'0 0.0
2016-May-21 00:31N 53°17' W 002°54'0 0.0
2016-May-20 23:31N 53°17' W 002°54'0 0.0
2016-May-20 22:28N 53°17' W 002°54'0 0.0
2016-May-20 21:31N 53°17' W 002°54'0 0.0
2016-May-20 20:31N 53°17' W 002°54'0 0.0
2016-May-20 19:31N 53°17' W 002°54'0 0.0
2016-May-20 18:31N 53°17' W 002°54'0 0.0
2016-May-20 17:31N 53°17' W 002°54'0 0.0
2016-May-20 16:31N 53°17' W 002°54'0 0.0
2016-May-20 15:28N 53°17' W 002°54'0 0.0
2016-May-20 14:31N 53°17' W 002°54'0 0.0
2016-May-20 13:28N 53°17' W 002°54'0 0.0
2016-May-20 12:31N 53°17' W 002°54'0 0.0
2016-May-20 11:31N 53°17' W 002°54'0 0.0
2016-May-20 10:31N 53°17' W 002°54'0 0.0
2016-May-20 09:28N 53°17' W 002°54'0 0.0
2016-May-20 08:31N 53°17' W 002°54'0 0.0
2016-May-20 07:31N 53°17' W 002°54'  
Track history (hours):
 
Tides and Currents Weather Stations Pressure Air Temp Water Temp Dewpoint Dewpoint Depression Visibility Wind Speed Wind Dir Waves Ship Positions

MTS Valour

Last reported at 2016-May-30 06:33 UTC. Time now 2016-May-30 06:51 UTC.
Position N 50°45' W 000°01'.

Length 24 m; draft 2.4 m.

Type: Tug. MMSI: 235040596.

Date/timePositionNaut miles runAvg speedWind from/ knotsBaromVisibWave heightAir tempDewpointWater temp
2016-May-30 06:33N 50°45' W 000°01'0 0.0
2016-May-30 05:33N 50°45' W 000°01'0 0.0
2016-May-30 04:33N 50°45' W 000°01'0 0.0
2016-May-30 03:30N 50°45' W 000°01'0 0.0
2016-May-30 02:33N 50°45' W 000°00'0 0.0
2016-May-30 01:33N 50°45' W 000°01'0 0.0
2016-May-30 00:33N 50°45' W 000°01'0 0.0
2016-May-29 23:34N 50°45' W 000°01'0 0.0
2016-May-29 22:33N 50°45' W 000°01'0 0.0
2016-May-29 21:33N 50°45' W 000°01'0 0.0
2016-May-29 20:33N 50°45' W 000°01'0 0.0
2016-May-29 19:33N 50°45' W 000°01'0 0.0
2016-May-29 18:33N 50°45' W 000°01'0 0.0
2016-May-29 17:33N 50°45' W 000°01'0 0.0
2016-May-29 16:34N 50°45' W 000°01'0 0.0
2016-May-29 15:32N 50°45' W 000°01'0 0.0
2016-May-29 14:33N 50°45' W 000°01'0 0.0
2016-May-29 13:33N 50°45' W 000°01'1 1.2
2016-May-29 12:33N 50°45' E 000°01'3 3.2
2016-May-29 11:33N 50°43' E 000°05'3 2.6
2016-May-29 10:33N 50°42' E 000°09'3 3.4
2016-May-29 09:33N 50°41' E 000°04'3 2.9
2016-May-29 08:33N 50°39' E 000°00'3 2.7
2016-May-29 07:33N 50°38' W 000°03'3 2.8
2016-May-29 06:30N 50°38' W 000°08'4 3.9
2016-May-29 05:33N 50°42' W 000°05'4 4.4
2016-May-29 04:33N 50°42' E 000°02'4 4.2
2016-May-29 03:29N 50°41' E 000°09'2 1.7
2016-May-29 02:33N 50°40' E 000°08'5 4.5
2016-May-29 01:33N 50°39' E 000°01'5 5.0
2016-May-29 00:31N 50°38' W 000°07'5 4.8
2016-May-28 23:33N 50°37' W 000°14'4 4.4
2016-May-28 22:33N 50°36' W 000°21'4 3.7
2016-May-28 21:33N 50°37' W 000°26'3 3.1
2016-May-28 20:33N 50°37' W 000°31'3 3.3
2016-May-28 19:34N 50°37' W 000°36'3 2.7
2016-May-28 18:33N 50°36' W 000°41'3 2.8
2016-May-28 17:33N 50°36' W 000°45'3 2.6
2016-May-28 16:33N 50°35' W 000°49'83 5.5
2016-May-28 01:22N 50°13' W 002°54'6 7.2
2016-May-28 00:33N 50°14' W 003°03'7 7.4
2016-May-27 23:33N 50°11' W 003°14'7 7.3
2016-May-27 22:33N 50°10' W 003°25'7 7.3
2016-May-27 21:33N 50°09' W 003°37'8 7.3
2016-May-27 20:31N 50°07' W 003°48'19 6.6
2016-May-27 17:33N 50°02' W 004°18'6 6.1
2016-May-27 16:31N 50°01' W 004°27'213 4.5
2016-May-25 17:33N 53°33' W 003°56'8 8.4
2016-May-25 16:33N 53°33' W 003°42'8 8.1
2016-May-25 15:33N 53°33' W 003°29'7 7.1
2016-May-25 14:33N 53°32' W 003°17'6 5.8
2016-May-25 13:33N 53°31' W 003°07'7 6.7
2016-May-25 12:33N 53°26' W 003°01'3 2.6
2016-May-25 11:33N 53°23' W 003°01'0 0.0
2016-May-25 10:33N 53°23' W 003°01'0 0.0
2016-May-25 09:12N 53°23' W 003°01'0 0.0
2016-May-25 08:30N 53°23' W 003°01'0 0.0
2016-May-25 07:33N 53°23' W 003°01'0 0.0
2016-May-25 06:30N 53°23' W 003°01'0 0.0
2016-May-25 05:33N 53°23' W 003°01'0 0.0
2016-May-25 04:33N 53°23' W 003°01'0 0.0
2016-May-25 03:30N 53°23' W 003°01'0 0.0
2016-May-25 02:33N 53°23' W 003°01'0 0.0
2016-May-25 01:33N 53°23' W 003°01'0 0.0
2016-May-25 00:33N 53°23' W 003°01'0 0.0
2016-May-24 23:33N 53°23' W 003°01'0 0.0
2016-May-24 22:33N 53°23' W 003°01'0 0.0
2016-May-24 21:33N 53°23' W 003°01'0 0.0
2016-May-24 20:30N 53°23' W 003°01'0 0.0
2016-May-24 19:25N 53°23' W 003°01'0 0.0
2016-May-24 18:25N 53°23' W 003°01'0 0.0
2016-May-24 17:31N 53°23' W 003°01'0 0.0
2016-May-24 16:31N 53°23' W 003°01'0 0.1
2016-May-24 15:31N 53°23' W 003°01'0 0.0
2016-May-24 14:28N 53°23' W 003°01'0 0.1
2016-May-24 13:31N 53°23' W 003°01'0 0.0
2016-May-24 12:28N 53°23' W 003°01'0 0.0
2016-May-24 11:28N 53°23' W 003°01'0 0.0
2016-May-24 10:31N 53°23' W 003°01'0 0.0
2016-May-24 09:31N 53°23' W 003°01'0 0.0
2016-May-24 08:31N 53°23' W 003°01'0 0.0
2016-May-24 07:31N 53°23' W 003°01'0 0.0
2016-May-24 06:31N 53°23' W 003°01'0 0.0
2016-May-24 05:22N 53°23' W 003°01'0 0.0
2016-May-24 04:31N 53°23' W 003°01'0 0.0
2016-May-24 03:31N 53°23' W 003°01'0 0.0
2016-May-24 02:31N 53°23' W 003°01'0 0.0
2016-May-24 01:31N 53°23' W 003°01'0 0.0
2016-May-24 00:28N 53°23' W 003°01'0 0.0
2016-May-23 23:31N 53°23' W 003°01'0 0.0
2016-May-23 22:31N 53°23' W 003°01'0 0.0
2016-May-23 21:31N 53°23' W 003°01'0 0.0
2016-May-23 20:28N 53°23' W 003°01'0 0.0
2016-May-23 19:31N 53°23' W 003°01'0 0.1
2016-May-23 18:28N 53°23' W 003°01'0 0.1
2016-May-23 17:31N 53°23' W 003°01'0 0.0
2016-May-23 16:31N 53°23' W 003°01'0 0.0
2016-May-23 15:31N 53°23' W 003°01'0 0.0
2016-May-23 14:31N 53°23' W 003°01'0 0.0
2016-May-23 13:19N 53°23' W 003°01'0 0.0
2016-May-23 12:31N 53°23' W 003°01'0 0.0
2016-May-23 11:33N 53°23' W 003°01'0 0.3
2016-May-23 10:33N 53°23' W 003°00'1 1.2
2016-May-23 09:33N 53°22' W 002°59'3 3.0
2016-May-23 08:33N 53°20' W 002°57'3 2.6
2016-May-23 07:33N 53°18' W 002°54'0 0.3
2016-May-23 06:31N 53°17' W 002°54'0 0.0
2016-May-23 05:25N 53°17' W 002°54'0 0.0
2016-May-23 04:22N 53°17' W 002°54'0 0.0
2016-May-23 03:31N 53°17' W 002°54'0 0.0
2016-May-23 02:28N 53°17' W 002°54'0 0.0
2016-May-23 01:25N 53°17' W 002°54'0 0.0
2016-May-23 00:25N 53°17' W 002°54'0 0.0
2016-May-22 23:31N 53°17' W 002°54'0 0.0
2016-May-22 22:31N 53°17' W 002°54'0 0.0
2016-May-22 21:31N 53°17' W 002°54'0 0.0
2016-May-22 20:28N 53°17' W 002°54'0 0.0
2016-May-22 19:31N 53°17' W 002°54'0 0.0
2016-May-22 18:31N 53°17' W 002°54'0 0.0
2016-May-22 17:31N 53°17' W 002°54'0 0.0
2016-May-22 16:31N 53°17' W 002°54'0 0.0
2016-May-22 15:31N 53°17' W 002°54'0 0.0
2016-May-22 14:31N 53°17' W 002°54'0 0.0
2016-May-22 13:31N 53°17' W 002°54'0 0.0
2016-May-22 12:31N 53°17' W 002°54'0 0.0
2016-May-22 11:31N 53°17' W 002°54'0 0.0
2016-May-22 10:28N 53°17' W 002°54'0 0.0
2016-May-22 09:25N 53°17' W 002°54'0 0.0
2016-May-22 08:31N 53°17' W 002°54'0 0.0
2016-May-22 07:31N 53°17' W 002°54'0 0.0
2016-May-22 06:31N 53°17' W 002°54'0 0.0
2016-May-22 05:31N 53°17' W 002°54'0 0.0
2016-May-22 04:31N 53°17' W 002°54'0 0.0
2016-May-22 03:31N 53°17' W 002°54'0 0.0
2016-May-22 02:28N 53°17' W 002°54'0 0.0
2016-May-22 01:31N 53°17' W 002°54'0 0.0
2016-May-22 00:31N 53°17' W 002°54'0 0.0
2016-May-21 23:31N 53°17' W 002°54'0 0.0
2016-May-21 22:31N 53°17' W 002°54'0 0.0
2016-May-21 21:31N 53°17' W 002°54'0 0.0
2016-May-21 20:31N 53°17' W 002°54'0 0.0
2016-May-21 19:31N 53°17' W 002°54'0 0.0
2016-May-21 18:28N 53°17' W 002°54'0 0.0
2016-May-21 17:31N 53°17' W 002°54'0 0.0
2016-May-21 16:31N 53°17' W 002°54'0 0.0
2016-May-21 15:31N 53°17' W 002°54'0 0.0
2016-May-21 14:31N 53°17' W 002°54'0 0.0
2016-May-21 13:28N 53°17' W 002°54'0 0.0
2016-May-21 12:31N 53°17' W 002°54'0 0.0
2016-May-21 11:28N 53°17' W 002°54'0 0.0
2016-May-21 10:31N 53°17' W 002°54'0 0.0
2016-May-21 09:31N 53°17' W 002°54'0 0.0
2016-May-21 08:31N 53°17' W 002°54'0 0.0
2016-May-21 07:31N 53°17' W 002°54'0 0.0
2016-May-21 06:28N 53°17' W 002°54'0 0.0
2016-May-21 05:28N 53°17' W 002°54'0 0.0
2016-May-21 04:31N 53°17' W 002°54'0 0.0
2016-May-21 03:31N 53°17' W 002°54'0 0.0
2016-May-21 02:28N 53°17' W 002°54'0 0.0
2016-May-21 01:28N 53°17' W 002°54'0 0.0
2016-May-21 00:31N 53°17' W 002°54'0 0.0
2016-May-20 23:31N 53°17' W 002°54'0 0.0
2016-May-20 22:28N 53°17' W 002°54'0 0.0
2016-May-20 21:31N 53°17' W 002°54'0 0.0
2016-May-20 20:31N 53°17' W 002°54'0 0.0
2016-May-20 19:31N 53°17' W 002°54'0 0.0
2016-May-20 18:31N 53°17' W 002°54'0 0.0
2016-May-20 17:31N 53°17' W 002°54'0 0.0
2016-May-20 16:31N 53°17' W 002°54'0 0.0
2016-May-20 15:28N 53°17' W 002°54'0 0.0
2016-May-20 14:31N 53°17' W 002°54'0 0.0
2016-May-20 13:28N 53°17' W 002°54'0 0.0
2016-May-20 12:31N 53°17' W 002°54'0 0.0
2016-May-20 11:31N 53°17' W 002°54'0 0.0
2016-May-20 10:31N 53°17' W 002°54'0 0.0
2016-May-20 09:28N 53°17' W 002°54'0 0.0
2016-May-20 08:31N 53°17' W 002°54'0 0.0
2016-May-20 07:31N 53°17' W 002°54'  

Dump ship's entire track history